createdAt,value
2018-08-06T00:00:26.302Z,60.54
2018-08-06T00:01:26.294Z,60.44
2018-08-06T00:02:26.287Z,60.64
2018-08-06T00:03:26.273Z,60.54
2018-08-06T00:04:26.266Z,60.54
2018-08-06T00:05:26.256Z,60.83
2018-08-06T00:06:26.252Z,61.22
2018-08-06T00:07:26.230Z,61.02
2018-08-06T00:08:26.218Z,61.02
2018-08-06T00:09:26.215Z,60.80
2018-08-06T00:10:26.211Z,60.99
2018-08-06T00:11:26.193Z,60.99
2018-08-06T00:12:26.311Z,60.99
2018-08-06T00:13:26.169Z,60.93
2018-08-06T00:14:26.241Z,61.28
2018-08-06T00:15:26.162Z,61.47
2018-08-06T00:16:26.144Z,61.47
2018-08-06T00:17:26.126Z,61.96
2018-08-06T00:18:26.264Z,61.51
2018-08-06T00:19:26.103Z,61.77
2018-08-06T00:20:26.100Z,62.05
2018-08-06T00:21:26.085Z,62.25
2018-08-06T00:22:26.109Z,62.25
2018-08-06T00:23:26.066Z,62.73
2018-08-06T00:24:26.060Z,62.34
2018-08-06T00:25:26.041Z,62.54
2018-08-06T00:26:26.032Z,62.73
2018-08-06T00:27:26.021Z,62.54
2018-08-06T00:28:26.086Z,62.25
2018-08-06T00:29:26.005Z,62.73
2018-08-06T00:30:25.988Z,63.12
2018-08-06T00:31:25.980Z,63.21
2018-08-06T00:32:25.965Z,62.63
2018-08-06T00:33:25.955Z,63.21
2018-08-06T00:34:25.948Z,63.12
2018-08-06T00:35:25.932Z,63.21
2018-08-06T00:36:25.920Z,63.21
2018-08-06T00:37:25.910Z,62.99
2018-08-06T00:38:25.905Z,63.21
2018-08-06T00:39:25.890Z,62.51
2018-08-06T00:40:25.876Z,63.31
2018-08-06T00:41:25.874Z,63.79
2018-08-06T00:42:25.858Z,63.60
2018-08-06T00:43:25.853Z,63.37
2018-08-06T00:44:25.842Z,63.37
2018-08-06T00:45:25.852Z,63.47
2018-08-06T00:46:25.817Z,63.67
2018-08-06T00:47:25.808Z,63.85
2018-08-06T00:48:25.797Z,63.57
2018-08-06T00:49:25.784Z,64.15
2018-08-06T00:50:25.783Z,64.05
2018-08-06T00:51:25.760Z,64.43
2018-08-06T00:52:25.753Z,64.53
2018-08-06T00:53:25.744Z,64.24
2018-08-06T00:54:25.735Z,64.53
2018-08-06T00:55:25.722Z,64.34
2018-08-06T00:56:25.723Z,64.05
2018-08-06T00:57:25.698Z,64.53
2018-08-06T00:58:25.685Z,64.43
2018-08-06T00:59:25.675Z,64.63
2018-08-06T01:00:25.666Z,64.53
2018-08-06T01:01:25.653Z,64.63
2018-08-06T01:02:25.641Z,64.72
2018-08-06T01:03:25.630Z,64.92
2018-08-06T01:04:25.625Z,65.01
2018-08-06T01:05:25.606Z,65.40
2018-08-06T01:06:25.601Z,65.20
2018-08-06T01:07:25.586Z,64.82
2018-08-06T01:08:25.575Z,65.30
2018-08-06T01:09:25.565Z,65.11
2018-08-06T01:10:25.554Z,65.17
2018-08-06T01:11:25.540Z,64.98
2018-08-06T01:12:25.534Z,65.50
2018-08-06T01:13:25.528Z,65.40
2018-08-06T01:14:25.512Z,65.50
2018-08-06T01:15:25.502Z,65.08
2018-08-06T01:16:25.498Z,65.37
2018-08-06T01:17:25.474Z,66.33
2018-08-06T01:18:25.469Z,66.04
2018-08-06T01:19:25.456Z,66.14
2018-08-06T01:20:25.442Z,66.04
2018-08-06T01:21:25.431Z,65.85
2018-08-06T01:22:25.424Z,65.95
2018-08-06T01:23:25.411Z,66.52
2018-08-06T01:24:25.397Z,66.62
2018-08-06T01:25:25.389Z,66.43
2018-08-06T01:26:25.377Z,66.52
2018-08-06T01:27:25.367Z,66.14
2018-08-06T01:28:25.355Z,66.52
2018-08-06T01:29:25.344Z,66.52
2018-08-06T01:30:25.345Z,66.72
2018-08-06T01:31:25.323Z,67.20
2018-08-06T01:32:25.316Z,67.20
2018-08-06T01:33:25.310Z,66.72
2018-08-06T01:34:25.289Z,67.68
2018-08-06T01:35:25.283Z,67.30
2018-08-06T01:36:25.264Z,67.26
2018-08-06T01:37:25.257Z,67.46
2018-08-06T01:38:25.246Z,67.46
2018-08-06T01:39:25.234Z,67.07
2018-08-06T01:40:25.226Z,68.23
2018-08-06T01:41:25.214Z,67.74
2018-08-06T01:42:25.209Z,68.04
2018-08-06T01:43:25.196Z,68.04
2018-08-06T01:44:25.176Z,68.32
2018-08-06T01:45:25.170Z,68.32
2018-08-06T01:46:25.155Z,68.13
2018-08-06T01:47:25.146Z,67.94
2018-08-06T01:48:25.133Z,68.42
2018-08-06T01:49:25.126Z,68.23
2018-08-06T01:50:25.118Z,68.52
2018-08-06T01:51:25.099Z,68.32
2018-08-06T01:52:25.102Z,68.32
2018-08-06T01:53:25.075Z,68.42
2018-08-06T01:54:25.066Z,67.94
2018-08-06T01:55:25.057Z,68.04
2018-08-06T01:56:25.041Z,68.32
2018-08-06T01:57:25.038Z,68.23
2018-08-06T01:58:25.037Z,68.90
2018-08-06T01:59:25.007Z,68.71
2018-08-06T02:00:24.994Z,68.52
2018-08-06T02:01:24.987Z,68.42
2018-08-06T02:02:25.012Z,68.80
2018-08-06T02:03:24.961Z,68.80
2018-08-06T02:04:24.947Z,69.09
2018-08-06T02:05:24.938Z,69.38
2018-08-06T02:06:24.925Z,69.29
2018-08-06T02:07:24.915Z,68.99
2018-08-06T02:08:24.909Z,69.09
2018-08-06T02:09:24.890Z,69.09
2018-08-06T02:10:24.885Z,69.38
2018-08-06T02:11:24.880Z,68.90
2018-08-06T02:12:24.859Z,69.35
2018-08-06T02:13:24.844Z,69.29
2018-08-06T02:14:24.835Z,69.96
2018-08-06T02:15:24.821Z,70.06
2018-08-06T02:16:24.969Z,70.02
2018-08-06T02:17:24.807Z,69.83
2018-08-06T02:18:24.844Z,70.21
2018-08-06T02:19:24.777Z,70.31
2018-08-06T02:20:24.765Z,70.31
2018-08-06T02:21:24.752Z,70.21
2018-08-06T02:22:24.742Z,70.41
2018-08-06T02:23:24.731Z,70.02
2018-08-06T02:24:24.725Z,70.21
2018-08-06T02:25:24.708Z,70.31
2018-08-06T02:26:24.697Z,70.70
2018-08-06T02:27:24.693Z,70.89
2018-08-06T02:28:24.677Z,70.50
2018-08-06T02:29:24.668Z,70.79
2018-08-06T02:30:24.658Z,70.70
2018-08-06T02:31:24.639Z,70.79
2018-08-06T02:32:24.626Z,71.47
2018-08-06T02:33:24.618Z,71.28
2018-08-06T02:34:24.606Z,71.18
2018-08-06T02:35:24.600Z,71.08
2018-08-06T02:36:24.589Z,71.37
2018-08-06T02:37:24.577Z,72.24
2018-08-06T02:38:24.562Z,71.85
2018-08-06T02:39:24.548Z,71.95
2018-08-06T02:40:24.538Z,72.11
2018-08-06T02:41:24.527Z,71.95
2018-08-06T02:42:24.520Z,71.81
2018-08-06T02:43:24.509Z,71.85
2018-08-06T02:44:24.486Z,72.05
2018-08-06T02:45:24.476Z,72.43
2018-08-06T02:46:24.465Z,72.53
2018-08-06T02:47:24.458Z,72.78
2018-08-06T02:48:24.447Z,72.88
2018-08-06T02:49:24.428Z,73.07
2018-08-06T02:50:24.422Z,73.36
2018-08-06T02:51:24.406Z,73.84
2018-08-06T02:52:24.395Z,73.65
2018-08-06T02:53:24.386Z,73.84
2018-08-06T02:54:24.368Z,74.03
2018-08-06T02:55:24.365Z,73.84
2018-08-06T02:56:24.353Z,74.13
2018-08-06T02:57:24.339Z,74.22
2018-08-06T02:58:24.324Z,74.22
2018-08-06T02:59:24.310Z,74.13
2018-08-06T03:00:24.299Z,74.03
2018-08-06T03:01:24.292Z,74.03
2018-08-06T03:02:24.281Z,74.32
2018-08-06T03:03:24.267Z,74.32
2018-08-06T03:04:24.254Z,73.84
2018-08-06T03:05:24.243Z,73.84
2018-08-06T03:06:24.231Z,74.71
2018-08-06T03:07:24.223Z,74.76
2018-08-06T03:08:24.207Z,74.48
2018-08-06T03:09:24.197Z,74.96
2018-08-06T03:10:24.186Z,74.48
2018-08-06T03:11:24.176Z,75.15
2018-08-06T03:12:24.162Z,75.15
2018-08-06T03:13:24.147Z,75.15
2018-08-06T03:14:24.140Z,74.48
2018-08-06T03:15:24.127Z,75.34
2018-08-06T03:16:24.110Z,75.15
2018-08-06T03:17:24.102Z,74.86
2018-08-06T03:18:24.088Z,75.15
2018-08-06T03:19:24.077Z,75.24
2018-08-06T03:20:24.063Z,74.86
2018-08-06T03:21:24.066Z,75.44
2018-08-06T03:22:24.041Z,75.54
2018-08-06T03:23:24.132Z,75.24
2018-08-06T03:24:24.017Z,74.96
2018-08-06T03:25:24.007Z,74.76
2018-08-06T03:26:24.006Z,74.96
2018-08-06T03:27:24.132Z,74.76
2018-08-06T03:28:23.970Z,74.76
2018-08-06T03:29:24.057Z,74.96
2018-08-06T03:30:23.945Z,75.24
2018-08-06T03:31:23.939Z,75.15
2018-08-06T03:32:23.927Z,75.24
2018-08-06T03:33:23.964Z,74.57
2018-08-06T03:34:23.899Z,75.44
2018-08-06T03:35:23.890Z,75.63
2018-08-06T03:36:23.886Z,75.34
2018-08-06T03:37:23.863Z,75.82
2018-08-06T03:38:23.857Z,75.24
2018-08-06T03:39:23.892Z,74.86
2018-08-06T03:40:23.835Z,75.05
2018-08-06T03:41:23.858Z,75.05
2018-08-06T03:42:23.809Z,74.67
2018-08-06T03:43:23.800Z,74.86
2018-08-06T03:44:23.776Z,75.44
2018-08-06T03:45:23.767Z,75.34
2018-08-06T03:46:23.759Z,76.01
2018-08-06T03:47:23.746Z,76.50
2018-08-06T03:48:23.735Z,76.59
2018-08-06T03:49:23.726Z,76.69
2018-08-06T03:50:23.708Z,76.59
2018-08-06T03:51:23.698Z,76.59
2018-08-06T03:52:23.687Z,76.59
2018-08-06T03:53:23.673Z,76.26
2018-08-06T03:54:23.664Z,76.84
2018-08-06T03:55:23.650Z,76.69
2018-08-06T03:56:23.635Z,76.69
2018-08-06T03:57:23.624Z,77.04
2018-08-06T03:58:23.621Z,76.78
2018-08-06T03:59:23.606Z,76.50
2018-08-06T04:00:23.589Z,76.69
2018-08-06T04:01:23.576Z,76.31
2018-08-06T04:02:23.565Z,76.59
2018-08-06T04:03:23.555Z,76.78
2018-08-06T04:04:23.547Z,76.59
2018-08-06T04:05:23.527Z,76.31
2018-08-06T04:06:23.516Z,76.59
2018-08-06T04:07:23.507Z,76.98
2018-08-06T04:08:23.493Z,77.08
2018-08-06T04:09:23.480Z,76.78
2018-08-06T04:10:23.466Z,77.26
2018-08-06T04:11:23.454Z,77.51
2018-08-06T04:12:23.454Z,77.65
2018-08-06T04:13:23.443Z,77.42
2018-08-06T04:14:23.418Z,77.65
2018-08-06T04:15:23.404Z,77.42
2018-08-06T04:16:23.398Z,77.33
2018-08-06T04:17:23.383Z,77.26
2018-08-06T04:18:23.377Z,77.51
2018-08-06T04:19:23.361Z,77.42
2018-08-06T04:20:23.348Z,77.51
2018-08-06T04:21:23.334Z,77.23
2018-08-06T04:22:23.325Z,77.51
2018-08-06T04:23:23.310Z,77.51
2018-08-06T04:24:23.299Z,77.04
2018-08-06T04:25:23.293Z,77.51
2018-08-06T04:26:23.280Z,77.61
2018-08-06T04:27:23.266Z,77.51
2018-08-06T04:28:23.251Z,77.04
2018-08-06T04:29:23.236Z,76.46
2018-08-06T04:30:23.227Z,77.04
2018-08-06T04:31:23.217Z,76.46
2018-08-06T04:32:23.205Z,76.94
2018-08-06T04:33:23.187Z,76.75
2018-08-06T04:34:23.178Z,77.13
2018-08-06T04:35:23.170Z,76.94
2018-08-06T04:36:23.151Z,76.65
2018-08-06T04:37:23.142Z,76.65
2018-08-06T04:38:23.175Z,77.33
2018-08-06T04:39:23.117Z,77.51
2018-08-06T04:40:23.111Z,77.33
2018-08-06T04:41:23.101Z,77.42
2018-08-06T04:42:23.080Z,77.42
2018-08-06T04:43:23.067Z,77.33
2018-08-06T04:44:23.056Z,77.42
2018-08-06T04:45:23.048Z,77.13
2018-08-06T04:46:23.032Z,77.23
2018-08-06T04:47:23.023Z,77.04
2018-08-06T04:48:23.008Z,77.42
2018-08-06T04:49:22.999Z,77.42
2018-08-06T04:50:22.987Z,77.23
2018-08-06T04:51:22.977Z,77.61
2018-08-06T04:52:22.959Z,77.42
2018-08-06T04:53:22.948Z,77.61
2018-08-06T04:54:22.935Z,77.33
2018-08-06T04:55:22.925Z,76.75
2018-08-06T04:56:22.918Z,77.04
2018-08-06T04:57:22.907Z,77.51
2018-08-06T04:58:22.889Z,77.36
2018-08-06T04:59:22.879Z,77.61
2018-08-06T05:00:22.864Z,77.26
2018-08-06T05:01:22.865Z,76.94
2018-08-06T05:02:22.843Z,77.04
2018-08-06T05:03:22.830Z,76.75
2018-08-06T05:04:22.819Z,76.65
2018-08-06T05:05:22.819Z,77.13
2018-08-06T05:06:22.793Z,76.75
2018-08-06T05:07:22.791Z,77.13
2018-08-06T05:08:22.771Z,77.51
2018-08-06T05:09:22.758Z,77.51
2018-08-06T05:10:22.752Z,77.13
2018-08-06T05:11:22.736Z,77.51
2018-08-06T05:12:22.731Z,77.61
2018-08-06T05:13:22.708Z,77.81
2018-08-06T05:14:22.697Z,78.28
2018-08-06T05:15:22.683Z,77.33
2018-08-06T05:16:22.670Z,77.42
2018-08-06T05:17:22.668Z,76.98
2018-08-06T05:18:22.652Z,76.56
2018-08-06T05:19:22.695Z,76.01
2018-08-06T05:20:22.640Z,76.84
2018-08-06T05:21:22.614Z,76.75
2018-08-06T05:22:22.600Z,76.31
2018-08-06T05:23:22.590Z,75.88
2018-08-06T05:24:22.580Z,76.46
2018-08-06T05:25:22.565Z,76.46
2018-08-06T05:26:22.555Z,76.94
2018-08-06T05:27:22.542Z,76.56
2018-08-06T05:28:22.529Z,77.04
2018-08-06T05:29:22.521Z,76.56
2018-08-06T05:30:22.508Z,76.65
2018-08-06T05:31:22.696Z,75.59
2018-08-06T05:32:22.488Z,76.75
2018-08-06T05:33:22.475Z,77.04
2018-08-06T05:34:22.458Z,76.36
2018-08-06T05:35:22.446Z,77.04
2018-08-06T05:36:22.434Z,77.42
2018-08-06T05:37:22.578Z,77.51
2018-08-06T05:38:22.412Z,77.23
2018-08-06T05:39:22.449Z,77.23
2018-08-06T05:40:22.389Z,76.56
2018-08-06T05:41:22.473Z,76.36
2018-08-06T05:42:22.367Z,76.75
2018-08-06T05:43:22.404Z,75.98
2018-08-06T05:44:22.338Z,75.73
2018-08-06T05:45:22.325Z,75.54
2018-08-06T05:46:22.316Z,75.44
2018-08-06T05:47:22.404Z,75.59
2018-08-06T05:48:22.415Z,75.69
2018-08-06T05:49:22.329Z,75.73
2018-08-06T05:50:22.271Z,75.44
2018-08-06T05:51:22.259Z,75.63
2018-08-06T05:52:22.249Z,75.24
2018-08-06T05:53:22.233Z,75.98
2018-08-06T05:54:22.218Z,76.56
2018-08-06T05:55:22.208Z,76.31
2018-08-06T05:56:22.200Z,76.69
2018-08-06T05:57:22.186Z,75.05
2018-08-06T05:58:22.190Z,75.54
2018-08-06T05:59:22.160Z,75.24
2018-08-06T06:00:22.148Z,74.76
2018-08-06T06:01:22.148Z,74.76
2018-08-06T06:02:22.124Z,74.96
2018-08-06T06:03:22.243Z,75.05
2018-08-06T06:04:22.105Z,74.76
2018-08-06T06:05:22.093Z,74.96
2018-08-06T06:06:22.079Z,74.96
2018-08-06T06:07:22.067Z,75.15
2018-08-06T06:08:22.059Z,75.15
2018-08-06T06:09:22.046Z,75.05
2018-08-06T06:10:22.037Z,75.15
2018-08-06T06:11:22.020Z,74.86
2018-08-06T06:12:22.008Z,75.15
2018-08-06T06:13:21.997Z,75.38
2018-08-06T06:14:21.984Z,74.71
2018-08-06T06:15:21.976Z,74.03
2018-08-06T06:16:21.960Z,73.84
2018-08-06T06:17:21.952Z,74.07
2018-08-06T06:18:21.936Z,73.20
2018-08-06T06:19:21.930Z,72.81
2018-08-06T06:20:21.914Z,73.49
2018-08-06T06:21:21.907Z,72.91
2018-08-06T06:22:21.891Z,72.43
2018-08-06T06:23:21.879Z,72.63
2018-08-06T06:24:21.865Z,71.12
2018-08-06T06:25:21.857Z,70.73
2018-08-06T06:26:21.843Z,71.31
2018-08-06T06:27:21.838Z,71.41
2018-08-06T06:28:21.832Z,70.92
2018-08-06T06:29:21.811Z,70.44
2018-08-06T06:30:21.798Z,70.15
2018-08-06T06:31:21.790Z,70.06
2018-08-06T06:32:21.783Z,70.44
2018-08-06T06:33:21.762Z,72.31
2018-08-06T06:34:21.768Z,68.90
2018-08-06T06:35:21.745Z,69.13
2018-08-06T06:36:21.727Z,69.13
2018-08-06T06:37:21.720Z,69.23
2018-08-06T06:38:21.712Z,69.03
2018-08-06T06:39:21.696Z,68.84
2018-08-06T06:40:21.684Z,68.07
2018-08-06T06:41:21.674Z,68.01
2018-08-06T06:42:21.667Z,67.91
2018-08-06T06:43:21.661Z,68.10
2018-08-06T06:44:21.641Z,67.30
2018-08-06T06:45:21.642Z,66.75
2018-08-06T06:46:21.619Z,67.23
2018-08-06T06:47:21.610Z,67.81
2018-08-06T06:48:21.597Z,67.43
2018-08-06T06:49:21.586Z,67.14
2018-08-06T06:50:21.674Z,67.14
2018-08-06T06:51:21.566Z,66.56
2018-08-06T06:52:21.602Z,66.56
2018-08-06T06:53:21.545Z,67.04
2018-08-06T06:54:21.631Z,66.49
2018-08-06T06:55:21.525Z,66.56
2018-08-06T06:56:21.519Z,66.78
2018-08-06T06:57:21.505Z,66.30
2018-08-06T06:58:21.540Z,66.11
2018-08-06T06:59:21.485Z,66.69
2018-08-06T07:00:21.514Z,66.40
2018-08-06T07:01:21.457Z,65.63
2018-08-06T07:02:21.442Z,66.24
2018-08-06T07:03:21.443Z,65.37
2018-08-06T07:04:21.421Z,65.37
2018-08-06T07:05:21.416Z,64.69
2018-08-06T07:06:21.444Z,64.59
2018-08-06T07:07:21.395Z,64.92
2018-08-06T07:08:21.387Z,63.56
2018-08-06T07:09:21.373Z,62.40
2018-08-06T07:10:21.367Z,61.73
2018-08-06T07:11:21.355Z,61.54
2018-08-06T07:12:21.343Z,62.79
2018-08-06T07:13:21.328Z,62.12
2018-08-06T07:14:21.322Z,60.96
2018-08-06T07:15:21.316Z,60.60
2018-08-06T07:16:21.300Z,62.53
2018-08-06T07:17:21.286Z,62.53
2018-08-06T07:18:21.286Z,60.92
2018-08-06T07:19:21.273Z,60.24
2018-08-06T07:20:21.318Z,60.53
2018-08-06T07:21:21.244Z,59.86
2018-08-06T07:22:21.236Z,60.14
2018-08-06T07:23:21.230Z,60.34
2018-08-06T07:24:21.220Z,61.11
2018-08-06T07:25:21.207Z,61.05
2018-08-06T07:26:21.202Z,60.47
2018-08-06T07:27:21.195Z,60.85
2018-08-06T07:28:21.173Z,59.50
2018-08-06T07:29:21.175Z,59.31
2018-08-06T07:30:21.155Z,59.21
2018-08-06T07:31:21.152Z,58.92
2018-08-06T07:32:21.140Z,58.53
2018-08-06T07:33:21.237Z,59.23
2018-08-06T07:34:21.116Z,58.56
2018-08-06T07:35:21.107Z,59.43
2018-08-06T07:36:21.108Z,59.05
2018-08-06T07:37:21.192Z,57.69
2018-08-06T07:38:21.085Z,58.95
2018-08-06T07:39:21.209Z,57.59
2018-08-06T07:40:21.065Z,56.94
2018-08-06T07:41:21.055Z,57.53
2018-08-06T07:42:21.044Z,56.07
2018-08-06T07:43:21.084Z,57.14
2018-08-06T07:44:21.021Z,57.23
2018-08-06T07:45:21.010Z,57.04
2018-08-06T07:46:21.020Z,59.36
2018-08-06T07:47:20.992Z,58.62
2018-08-06T07:48:20.984Z,57.65
2018-08-06T07:49:21.006Z,58.72
2018-08-06T07:50:20.965Z,57.84
2018-08-06T07:51:20.956Z,57.36
2018-08-06T07:52:20.955Z,56.00
2018-08-06T07:53:20.941Z,55.64
2018-08-06T07:54:20.930Z,56.41
2018-08-06T07:55:20.925Z,56.03
2018-08-06T07:56:20.914Z,53.80
2018-08-06T07:57:20.899Z,54.67
2018-08-06T07:58:20.896Z,54.09
2018-08-06T07:59:20.885Z,54.64
2018-08-06T08:00:20.875Z,56.41
2018-08-06T08:01:20.865Z,55.54
2018-08-06T08:02:20.864Z,55.06
2018-08-06T08:03:20.844Z,54.86
2018-08-06T08:04:20.836Z,54.38
2018-08-06T08:05:20.829Z,54.86
2018-08-06T08:06:20.876Z,55.87
2018-08-06T08:07:20.819Z,55.18
2018-08-06T08:08:20.801Z,52.66
2018-08-06T08:09:20.792Z,51.96
2018-08-06T08:10:20.782Z,52.28
2018-08-06T08:11:20.775Z,52.76
2018-08-06T08:12:20.764Z,52.95
2018-08-06T08:13:20.763Z,51.79
2018-08-06T08:14:20.750Z,53.24
2018-08-06T08:15:20.796Z,53.73
2018-08-06T08:16:20.735Z,53.53
2018-08-06T08:17:20.728Z,52.78
2018-08-06T08:18:20.715Z,52.30
2018-08-06T08:19:20.733Z,51.62
2018-08-06T08:20:20.929Z,51.14
2018-08-06T08:21:20.694Z,51.04
2018-08-06T08:22:20.697Z,51.33
2018-08-06T08:23:20.678Z,51.72
2018-08-06T08:24:20.663Z,51.04
2018-08-06T08:25:20.653Z,50.94
2018-08-06T08:26:20.646Z,49.77
2018-08-06T08:27:20.637Z,50.26
2018-08-06T08:28:20.634Z,50.84
2018-08-06T08:29:20.624Z,51.84
2018-08-06T08:30:20.616Z,51.16
2018-08-06T08:31:20.612Z,50.58
2018-08-06T08:32:20.597Z,51.06
2018-08-06T08:33:20.595Z,51.09
2018-08-06T08:34:20.580Z,51.28
2018-08-06T08:35:20.575Z,49.15
2018-08-06T08:36:20.563Z,49.56
2018-08-06T08:37:20.562Z,48.68
2018-08-06T08:38:20.549Z,48.68
2018-08-06T08:39:20.546Z,48.78
2018-08-06T08:40:20.531Z,49.17
2018-08-06T08:41:20.537Z,49.76
2018-08-06T08:42:20.516Z,49.27
2018-08-06T08:43:20.508Z,48.61
2018-08-06T08:44:20.502Z,48.30
2018-08-06T08:45:20.499Z,46.94
2018-08-06T08:46:20.491Z,48.00
2018-08-06T08:47:20.480Z,48.00
2018-08-06T08:48:20.474Z,47.71
2018-08-06T08:49:20.477Z,47.23
2018-08-06T08:50:20.457Z,46.55
2018-08-06T08:51:20.450Z,46.15
2018-08-06T08:52:20.497Z,46.33
2018-08-06T08:53:20.437Z,47.23
2018-08-06T08:54:20.425Z,47.91
2018-08-06T08:55:20.428Z,46.25
2018-08-06T08:56:20.419Z,46.55
2018-08-06T08:57:20.400Z,46.64
2018-08-06T08:58:20.405Z,46.08
2018-08-06T08:59:20.389Z,45.98
2018-08-06T09:00:20.380Z,47.05
2018-08-06T09:01:20.445Z,45.89
2018-08-06T09:02:20.376Z,46.08
2018-08-06T09:03:20.364Z,45.50
2018-08-06T09:04:20.348Z,45.91
2018-08-06T09:05:20.427Z,46.01
2018-08-06T09:06:20.339Z,46.01
2018-08-06T09:07:20.467Z,45.35
2018-08-06T09:08:20.318Z,44.38
2018-08-06T09:09:20.411Z,44.09
2018-08-06T09:10:20.308Z,44.18
2018-08-06T09:11:20.352Z,44.86
2018-08-06T09:12:20.292Z,44.76
2018-08-06T09:13:20.334Z,42.91
2018-08-06T09:14:20.282Z,42.90
2018-08-06T09:15:20.276Z,43.58
2018-08-06T09:16:20.272Z,44.74
2018-08-06T09:17:20.256Z,44.57
2018-08-06T09:18:20.251Z,43.40
2018-08-06T09:19:20.247Z,43.23
2018-08-06T09:20:20.227Z,44.20
2018-08-06T09:21:20.301Z,44.20
2018-08-06T09:22:20.216Z,43.35
2018-08-06T09:23:20.211Z,42.47
2018-08-06T09:24:20.207Z,42.47
2018-08-06T09:25:20.202Z,43.08
2018-08-06T09:26:20.187Z,42.47
2018-08-06T09:27:20.187Z,42.10
2018-08-06T09:28:20.183Z,41.42
2018-08-06T09:29:20.171Z,41.52
2018-08-06T09:30:20.164Z,41.20
2018-08-06T09:31:20.154Z,40.81
2018-08-06T09:32:20.147Z,40.81
2018-08-06T09:33:20.150Z,41.61
2018-08-06T09:34:20.135Z,42.20
2018-08-06T09:35:20.128Z,42.20
2018-08-06T09:36:20.122Z,40.93
2018-08-06T09:37:20.117Z,40.73
2018-08-06T09:38:20.106Z,40.95
2018-08-06T09:39:20.109Z,38.89
2018-08-06T09:40:20.170Z,39.47
2018-08-06T09:41:20.086Z,39.18
2018-08-06T09:42:20.255Z,39.67
2018-08-06T09:43:20.078Z,38.98
2018-08-06T09:44:20.146Z,38.98
2018-08-06T09:45:20.066Z,39.67
2018-08-06T09:46:20.157Z,38.89
2018-08-06T09:47:20.077Z,39.39
2018-08-06T09:48:20.147Z,38.61
2018-08-06T09:49:20.038Z,38.32
2018-08-06T09:50:20.138Z,37.63
2018-08-06T09:51:20.025Z,37.54
2018-08-06T09:52:20.027Z,38.22
2018-08-06T09:53:20.017Z,36.76
2018-08-06T09:54:20.013Z,36.66
2018-08-06T09:55:20.009Z,36.96
2018-08-06T09:56:19.998Z,37.25
2018-08-06T09:57:19.991Z,37.27
2018-08-06T09:58:19.983Z,37.37
2018-08-06T09:59:19.979Z,37.55
2018-08-06T10:00:19.972Z,36.98
2018-08-06T10:01:19.969Z,37.57
2018-08-06T10:02:19.966Z,36.98
2018-08-06T10:03:19.958Z,37.27
2018-08-06T10:04:19.948Z,36.78
2018-08-06T10:05:19.948Z,37.01
2018-08-06T10:06:20.074Z,36.91
2018-08-06T10:07:19.937Z,35.84
2018-08-06T10:08:19.926Z,35.64
2018-08-06T10:09:19.921Z,35.27
2018-08-06T10:10:19.915Z,35.36
2018-08-06T10:11:19.919Z,34.97
2018-08-06T10:12:19.916Z,34.99
2018-08-06T10:13:19.908Z,35.19
2018-08-06T10:14:19.895Z,34.62
2018-08-06T10:15:19.899Z,34.62
2018-08-06T10:16:19.888Z,34.54
2018-08-06T10:17:19.929Z,33.85
2018-08-06T10:18:19.882Z,34.05
2018-08-06T10:19:19.996Z,33.58
2018-08-06T10:20:19.867Z,32.71
2018-08-06T10:21:19.867Z,32.51
2018-08-06T10:22:19.865Z,32.82
2018-08-06T10:23:19.858Z,33.04
2018-08-06T10:24:19.847Z,31.86
2018-08-06T10:25:19.848Z,31.68
2018-08-06T10:26:19.848Z,30.98
2018-08-06T10:27:19.833Z,31.29
2018-08-06T10:28:19.829Z,30.21
2018-08-06T10:29:19.826Z,30.98
2018-08-06T10:30:19.873Z,30.50
2018-08-06T10:31:19.815Z,30.22
2018-08-06T10:32:19.808Z,30.24
2018-08-06T10:33:19.819Z,30.04
2018-08-06T10:34:19.802Z,29.75
2018-08-06T10:35:19.800Z,30.02
2018-08-06T10:36:19.791Z,29.73
2018-08-06T10:37:19.794Z,30.22
2018-08-06T10:38:19.787Z,30.32
2018-08-06T10:39:19.777Z,30.19
2018-08-06T10:40:19.799Z,31.29
2018-08-06T10:41:19.767Z,30.40
2018-08-06T10:42:19.763Z,30.60
2018-08-06T10:43:19.761Z,31.09
2018-08-06T10:44:19.759Z,30.40
2018-08-06T10:45:19.754Z,31.27
2018-08-06T10:46:19.748Z,31.27
2018-08-06T10:47:19.746Z,31.35
2018-08-06T10:48:19.810Z,31.55
2018-08-06T10:49:19.750Z,32.73
2018-08-06T10:50:19.739Z,31.93
2018-08-06T10:51:19.727Z,32.60
2018-08-06T10:52:19.722Z,33.58
2018-08-06T10:53:19.719Z,34.16
2018-08-06T10:54:19.719Z,33.48
2018-08-06T10:55:19.717Z,32.60
2018-08-06T10:56:19.716Z,32.89
2018-08-06T10:57:19.710Z,33.38
2018-08-06T10:58:19.698Z,33.87
2018-08-06T10:59:19.698Z,34.28
2018-08-06T11:00:19.689Z,33.98
2018-08-06T11:01:19.685Z,34.38
2018-08-06T11:02:19.677Z,33.89
2018-08-06T11:03:19.677Z,33.79
2018-08-06T11:04:19.678Z,35.47
2018-08-06T11:05:19.663Z,35.37
2018-08-06T11:06:19.667Z,34.20
2018-08-06T11:07:19.658Z,32.53
2018-08-06T11:08:19.668Z,32.43
2018-08-06T11:09:19.651Z,33.80
2018-08-06T11:10:19.649Z,34.10
2018-08-06T11:11:19.648Z,32.35
2018-08-06T11:12:19.638Z,31.55
2018-08-06T11:13:19.636Z,31.44
2018-08-06T11:14:19.672Z,32.42
2018-08-06T11:15:19.625Z,32.42
2018-08-06T11:16:19.625Z,32.63
2018-08-06T11:17:19.621Z,31.63
2018-08-06T11:18:19.616Z,32.43
2018-08-06T11:19:19.611Z,32.92
2018-08-06T11:20:19.654Z,33.43
2018-08-06T11:21:19.607Z,32.42
2018-08-06T11:22:19.600Z,33.10
2018-08-06T11:23:19.596Z,33.00
2018-08-06T11:24:19.594Z,33.50
2018-08-06T11:25:19.586Z,33.39
2018-08-06T11:26:19.588Z,33.29
2018-08-06T11:27:19.741Z,32.53
2018-08-06T11:28:19.578Z,32.14
2018-08-06T11:29:19.572Z,31.94
2018-08-06T11:30:19.567Z,32.43
2018-08-06T11:31:19.616Z,32.94
2018-08-06T11:32:19.562Z,31.76
2018-08-06T11:33:19.558Z,32.45
2018-08-06T11:34:19.553Z,32.84
2018-08-06T11:35:19.608Z,32.64
2018-08-06T11:36:19.550Z,33.14
2018-08-06T11:37:19.541Z,34.23
2018-08-06T11:38:19.541Z,33.17
2018-08-06T11:39:19.537Z,32.97
2018-08-06T11:40:19.534Z,32.18
2018-08-06T11:41:19.526Z,31.79
2018-08-06T11:42:19.526Z,32.01
2018-08-06T11:43:19.522Z,31.22
2018-08-06T11:44:19.518Z,31.41
2018-08-06T11:45:19.514Z,30.53
2018-08-06T11:46:19.512Z,30.24
2018-08-06T11:47:19.508Z,31.32
2018-08-06T11:48:19.507Z,30.43
2018-08-06T11:49:19.525Z,30.04
2018-08-06T11:50:19.503Z,29.55
2018-08-06T11:51:19.500Z,29.16
2018-08-06T11:52:19.501Z,29.75
2018-08-06T11:53:19.503Z,29.06
2018-08-06T11:54:19.489Z,30.24
2018-08-06T11:55:19.487Z,30.53
2018-08-06T11:56:19.599Z,30.43
2018-08-06T11:57:19.484Z,30.24
2018-08-06T11:58:20.381Z,30.45
2018-08-06T11:59:19.483Z,30.45
2018-08-06T12:00:19.471Z,30.55
2018-08-06T12:01:19.468Z,29.96
2018-08-06T12:02:19.472Z,29.17
2018-08-06T12:03:19.476Z,29.17
2018-08-06T12:04:19.472Z,29.47
2018-08-06T12:05:19.457Z,28.97
2018-08-06T12:06:19.459Z,28.39
2018-08-06T12:07:19.460Z,29.17
2018-08-06T12:08:19.547Z,28.78
2018-08-06T12:09:19.448Z,29.17
2018-08-06T12:10:19.519Z,29.66
2018-08-06T12:11:19.445Z,30.05
2018-08-06T12:12:19.471Z,29.17
2018-08-06T12:13:19.438Z,28.29
2018-08-06T12:14:19.436Z,28.19
2018-08-06T12:15:19.523Z,27.80
2018-08-06T12:16:19.427Z,28.50
2018-08-06T12:17:19.429Z,29.68
2018-08-06T12:18:19.434Z,28.79
2018-08-06T12:19:19.424Z,28.59
2018-08-06T12:20:19.445Z,28.12
2018-08-06T12:21:19.419Z,28.22
2018-08-06T12:22:19.416Z,28.00
2018-08-06T12:23:19.413Z,28.51
2018-08-06T12:24:19.409Z,28.51
2018-08-06T12:25:19.408Z,28.51
2018-08-06T12:26:19.454Z,27.72
2018-08-06T12:27:19.444Z,28.51
2018-08-06T12:28:19.402Z,28.41
2018-08-06T12:29:19.399Z,28.91
2018-08-06T12:30:19.398Z,28.81
2018-08-06T12:31:19.392Z,29.20
2018-08-06T12:32:19.401Z,29.30
2018-08-06T12:33:19.421Z,29.10
2018-08-06T12:34:19.386Z,28.41
2018-08-06T12:35:19.388Z,29.00
2018-08-06T12:36:19.386Z,30.08
2018-08-06T12:37:19.384Z,29.30
2018-08-06T12:38:19.406Z,28.41
2018-08-06T12:39:19.378Z,27.72
2018-08-06T12:40:19.381Z,29.02
2018-08-06T12:41:19.371Z,28.72
2018-08-06T12:42:19.370Z,28.92
2018-08-06T12:43:19.367Z,28.72
2018-08-06T12:44:19.367Z,28.05
2018-08-06T12:45:19.367Z,28.13
2018-08-06T12:46:19.543Z,29.03
2018-08-06T12:47:19.359Z,29.92
2018-08-06T12:48:19.371Z,28.45
2018-08-06T12:49:19.356Z,27.17
2018-08-06T12:50:19.356Z,27.26
2018-08-06T12:51:19.353Z,26.97
2018-08-06T12:52:19.347Z,28.45